Roseville, Ohio
Current Conditions -  °F | °C
As of 6:53 PM on Friday 28 Nov 2014 (Local Time) from KZZV Reporting Station
Scattered Clouds Scattered Clouds  
Wind Chill: 24°   Ceiling: Unl
Heat Index: 29°   Visibility: 10mi
Dew Point: 16°   Wind: 5mph
Humidity: 58%   Direction: 150°SSE
Pressure: 30.21"   Gusts: NA
Location:  39.81°N, 82.07°W
Report Text: KZZV 282353Z AUTO 15004KT 10SM FEW055 FEW080 SCT110 M02/M09 A3021 RMK AO2 SNB30E39 SLP241 P0000 60000 T10171089 11011 21022 58012
Loading
Personal Weather Stations






























Interactive Weather Map New forecast layout! Learn more

10-Day Weather Forecast

Advertisements
Track Severe Weather on mobile